createdAt,value
2022-10-31T00:02:50.759Z,46.78
2022-10-31T00:08:10.902Z,36.45
2022-10-31T00:13:32.169Z,46.85
2022-10-31T00:18:54.046Z,47.85
2022-10-31T00:24:14.306Z,36.35
2022-10-31T00:29:35.037Z,55.80
2022-10-31T00:34:55.217Z,41.63
2022-10-31T00:40:15.695Z,44.75
2022-10-31T00:45:36.130Z,38.88
2022-10-31T00:50:57.080Z,38.83
2022-10-31T00:56:17.376Z,43.45
2022-10-31T01:01:37.933Z,39.60
2022-10-31T01:06:59.394Z,36.40
2022-10-31T01:12:19.652Z,37.33
2022-10-31T01:17:40.841Z,43.00
2022-10-31T01:23:04.928Z,39.35
2022-10-31T01:33:47.277Z,32.67
2022-10-31T01:39:11.482Z,35.75
2022-10-31T01:44:31.824Z,25.63
2022-10-31T01:49:57.323Z,17.83
2022-10-31T01:55:34.940Z,16.42
2022-10-31T02:01:01.759Z,14.07
2022-10-31T02:06:42.110Z,15.15
2022-10-31T02:12:07.146Z,17.02
2022-10-31T02:17:27.777Z,20.77
2022-10-31T02:23:20.754Z,30.73
2022-10-31T02:29:01.025Z,20.17
2022-10-31T02:34:37.542Z,14.32
2022-10-31T02:40:02.024Z,16.30
2022-10-31T02:45:46.020Z,17.38
2022-10-31T02:51:07.289Z,11.65
2022-10-31T02:56:29.928Z,13.05
2022-10-31T03:02:03.504Z,20.17
2022-10-31T03:07:51.270Z,4.55
2022-10-31T03:13:21.465Z,19.67
2022-10-31T03:18:54.774Z,12.70
2022-10-31T03:24:16.388Z,13.05
2022-10-31T03:29:39.512Z,12.90
2022-10-31T03:35:04.473Z,15.93
2022-10-31T03:40:28.458Z,7.88
2022-10-31T03:45:49.539Z,12.73
2022-10-31T03:51:23.565Z,13.73
2022-10-31T03:56:52.402Z,22.92
2022-10-31T04:02:16.972Z,16.20
2022-10-31T04:07:42.194Z,16.10
2022-10-31T04:13:08.170Z,10.15
2022-10-31T04:18:40.832Z,3.55
2022-10-31T04:24:01.593Z,11.70
2022-10-31T04:29:24.625Z,11.98
2022-10-31T04:34:45.107Z,10.32
2022-10-31T04:40:08.314Z,12.82
2022-10-31T04:46:06.855Z,18.52
2022-10-31T04:51:29.872Z,12.80
2022-10-31T04:56:50.682Z,15.48
2022-10-31T05:02:16.046Z,13.38
2022-10-31T05:07:47.101Z,12.27
2022-10-31T05:13:08.162Z,12.40
2022-10-31T05:18:37.257Z,10.43
2022-10-31T05:24:26.187Z,10.48
2022-10-31T05:29:46.616Z,15.10
2022-10-31T05:35:10.845Z,9.55
2022-10-31T05:41:03.936Z,11.60
2022-10-31T05:46:27.510Z,16.88
2022-10-31T05:52:06.235Z,10.88
2022-10-31T05:57:37.337Z,17.00
2022-10-31T06:03:00.309Z,17.77
2022-10-31T06:08:32.962Z,21.48
2022-10-31T06:14:01.286Z,19.85
2022-10-31T06:19:36.640Z,13.88
2022-10-31T06:24:57.181Z,13.95
2022-10-31T06:30:27.901Z,13.80
2022-10-31T06:35:49.670Z,12.00
2022-10-31T06:41:12.605Z,15.35
2022-10-31T06:46:37.526Z,20.65
2022-10-31T06:52:16.756Z,17.05
2022-10-31T06:57:37.161Z,15.73
2022-10-31T07:03:00.198Z,11.93
2022-10-31T07:08:20.736Z,18.45
2022-10-31T07:13:42.016Z,17.08
2022-10-31T07:19:03.140Z,16.95
2022-10-31T07:24:23.841Z,23.58
2022-10-31T07:30:18.234Z,19.35
2022-10-31T07:35:39.062Z,12.02
2022-10-31T07:40:59.670Z,12.68
2022-10-31T07:46:25.120Z,15.68
2022-10-31T07:52:04.364Z,28.10
2022-10-31T07:57:45.208Z,20.50
2022-10-31T08:03:17.301Z,17.75
2022-10-31T08:09:01.219Z,16.08
2022-10-31T08:14:21.942Z,17.65
2022-10-31T08:19:44.996Z,17.83
2022-10-31T08:25:08.554Z,20.33
2022-10-31T08:30:32.427Z,22.60
2022-10-31T08:36:11.624Z,14.00
2022-10-31T08:42:00.049Z,15.30
2022-10-31T08:47:20.671Z,20.25
2022-10-31T08:53:03.592Z,22.55
2022-10-31T08:58:24.966Z,9.95
2022-10-31T09:03:50.369Z,8.88
2022-10-31T09:09:10.957Z,11.45
2022-10-31T09:14:31.709Z,12.80
2022-10-31T09:20:11.057Z,19.77
2022-10-31T09:25:33.041Z,9.45
2022-10-31T09:31:15.886Z,16.05
2022-10-31T09:36:55.029Z,13.38
2022-10-31T09:42:33.861Z,17.17
2022-10-31T09:48:22.739Z,16.67
2022-10-31T09:54:12.269Z,10.63
2022-10-31T09:59:39.998Z,16.65
2022-10-31T10:05:04.926Z,15.85
2022-10-31T10:10:48.287Z,16.83
2022-10-31T10:16:34.472Z,7.95
2022-10-31T10:22:34.523Z,10.63
2022-10-31T10:28:22.592Z,17.40
2022-10-31T10:34:25.486Z,7.57
2022-10-31T10:39:51.085Z,4.95
2022-10-31T10:45:36.804Z,11.77
2022-10-31T10:50:58.486Z,18.73
2022-10-31T10:56:45.262Z,10.40
2022-10-31T11:02:18.350Z,8.13
2022-10-31T11:07:40.720Z,7.53
2022-10-31T11:13:04.500Z,3.33
2022-10-31T11:18:28.043Z,9.00
2022-10-31T11:23:48.263Z,5.67
2022-10-31T11:29:27.112Z,9.98
2022-10-31T11:34:51.433Z,13.35
2022-10-31T11:45:40.572Z,6.88
2022-10-31T11:51:01.298Z,7.60
2022-10-31T11:56:21.925Z,12.63
2022-10-31T12:01:49.139Z,10.38
2022-10-31T12:07:09.867Z,9.80
2022-10-31T12:12:49.662Z,10.68
2022-10-31T12:18:15.854Z,11.35
2022-10-31T12:23:59.982Z,11.20
2022-10-31T12:29:43.061Z,5.38
2022-10-31T12:35:47.654Z,12.15
2022-10-31T12:41:19.796Z,15.90
2022-10-31T12:47:15.225Z,8.57
2022-10-31T12:52:55.846Z,12.48
2022-10-31T12:58:37.981Z,11.02
2022-10-31T13:04:15.427Z,7.95
2022-10-31T13:09:54.630Z,10.57
2022-10-31T13:15:25.181Z,7.32
2022-10-31T13:20:54.618Z,7.95
2022-10-31T13:26:35.942Z,8.70
2022-10-31T13:31:56.414Z,12.80
2022-10-31T13:37:53.661Z,22.10
2022-10-31T13:43:42.437Z,8.90
2022-10-31T13:49:03.119Z,11.60
2022-10-31T13:54:35.143Z,13.57
2022-10-31T13:59:58.405Z,20.02
2022-10-31T14:05:33.737Z,16.35
2022-10-31T14:10:56.806Z,23.55
2022-10-31T14:16:29.103Z,15.70
2022-10-31T14:21:51.047Z,16.27
2022-10-31T14:27:20.352Z,17.88
2022-10-31T14:32:40.914Z,9.45
2022-10-31T14:38:36.662Z,10.18
2022-10-31T14:44:21.526Z,13.93
2022-10-31T14:49:50.662Z,10.77
2022-10-31T14:55:14.371Z,14.48
2022-10-31T15:00:37.033Z,16.57
2022-10-31T15:06:03.138Z,14.50
2022-10-31T15:11:27.154Z,15.43
2022-10-31T15:16:47.739Z,21.45
2022-10-31T15:22:14.457Z,19.48
2022-10-31T15:27:35.133Z,19.20
2022-10-31T15:32:58.821Z,25.52
2022-10-31T15:38:19.268Z,23.25
2022-10-31T15:43:40.697Z,21.35
2022-10-31T15:49:01.543Z,25.17
2022-10-31T15:54:22.497Z,35.90
2022-10-31T15:59:47.426Z,26.55
2022-10-31T16:05:20.186Z,22.50
2022-10-31T16:10:40.761Z,19.50
2022-10-31T16:16:32.762Z,24.05
2022-10-31T16:21:44.108Z,26.73
2022-10-31T16:27:18.221Z,17.90
2022-10-31T16:32:54.803Z,17.93
2022-10-31T16:38:15.567Z,23.70
2022-10-31T16:43:35.958Z,23.35
2022-10-31T16:48:56.198Z,22.58
2022-10-31T16:54:16.486Z,17.92
2022-10-31T16:59:36.993Z,19.92
2022-10-31T17:04:57.549Z,31.75
2022-10-31T17:10:20.203Z,19.42
2022-10-31T17:15:45.048Z,16.70
2022-10-31T17:21:08.434Z,20.02
2022-10-31T17:26:29.154Z,20.52
2022-10-31T17:31:49.672Z,19.60
2022-10-31T17:37:10.989Z,15.48
2022-10-31T17:42:31.397Z,14.50
2022-10-31T17:47:53.527Z,21.13
2022-10-31T17:53:13.827Z,15.43
2022-10-31T17:58:35.853Z,28.17
2022-10-31T18:03:57.227Z,24.17
2022-10-31T18:09:17.761Z,26.77
2022-10-31T18:14:38.345Z,32.17
2022-10-31T18:19:58.867Z,26.42
2022-10-31T18:25:19.236Z,34.60
2022-10-31T18:30:41.365Z,24.38
2022-10-31T18:36:06.357Z,26.80
2022-10-31T18:41:27.061Z,23.48
2022-10-31T18:46:47.468Z,24.17
2022-10-31T18:52:07.660Z,23.52
2022-10-31T18:57:27.902Z,17.40
2022-10-31T19:02:48.445Z,20.33
2022-10-31T19:08:09.451Z,21.80
2022-10-31T19:13:31.953Z,16.20
2022-10-31T19:18:56.990Z,19.17
2022-10-31T19:24:17.258Z,19.35
2022-10-31T19:29:37.750Z,17.88
2022-10-31T19:34:57.978Z,17.50
2022-10-31T19:40:18.665Z,23.70
2022-10-31T19:45:39.278Z,22.02
2022-10-31T19:51:02.392Z,23.90
2022-10-31T19:56:24.984Z,14.27
2022-10-31T20:01:45.571Z,20.45
2022-10-31T20:07:06.506Z,18.50
2022-10-31T20:12:26.673Z,19.38
2022-10-31T20:17:47.177Z,21.40
2022-10-31T20:23:07.704Z,20.77
2022-10-31T20:28:31.041Z,24.40
2022-10-31T20:33:53.384Z,22.40
2022-10-31T20:39:14.073Z,24.23
2022-10-31T20:44:34.513Z,19.05
2022-10-31T20:49:54.775Z,22.15
2022-10-31T20:55:16.159Z,21.17
2022-10-31T21:00:37.104Z,19.35
2022-10-31T21:06:01.298Z,23.20
2022-10-31T21:11:24.453Z,21.75
2022-10-31T21:16:44.862Z,22.15
2022-10-31T21:22:05.442Z,19.15
2022-10-31T21:27:26.167Z,18.88
2022-10-31T21:32:46.870Z,23.20
2022-10-31T21:38:07.100Z,19.33
2022-10-31T21:43:28.222Z,29.73
2022-10-31T21:48:49.350Z,25.63
2022-10-31T21:54:27.696Z,18.48
2022-10-31T21:59:48.520Z,25.48
2022-10-31T22:05:09.419Z,23.23
2022-10-31T22:10:29.702Z,27.98
2022-10-31T22:15:50.401Z,22.15
2022-10-31T22:21:17.073Z,23.90
2022-10-31T22:26:38.005Z,25.88
2022-10-31T22:32:00.577Z,23.02
2022-10-31T22:37:22.116Z,21.80
2022-10-31T22:42:42.596Z,23.17
2022-10-31T22:48:04.289Z,24.65
2022-10-31T22:53:25.153Z,22.98
2022-10-31T22:58:46.349Z,26.48
2022-10-31T23:04:06.787Z,21.98
2022-10-31T23:09:27.449Z,24.60
2022-10-31T23:14:47.752Z,18.90
2022-10-31T23:20:08.691Z,16.67
2022-10-31T23:25:47.685Z,23.05
2022-10-31T23:31:08.345Z,17.05
2022-10-31T23:36:29.004Z,18.92
2022-10-31T23:41:50.122Z,23.27
2022-10-31T23:47:11.284Z,26.92
2022-10-31T23:52:31.490Z,19.13
2022-10-31T23:57:51.533Z,19.73
